Parnell, Missouri
Current Conditions -  °F | °C
As of 11:35 PM on Wednesday 26 Nov 2014 (Local Time) from KICL Reporting Station
Overcast Overcast  
Wind Chill: 13°   Ceiling: 1300
Heat Index: 25°   Visibility: 10mi
Dew Point: 21°   Wind: 14mph
Humidity: 86%   Direction: 350°N
Pressure: 30.43"   Gusts: NA
Location:  40.44°N, 94.62°W
Report Text: KICL 270535Z AUTO 35012KT 10SM OVC013 M04/M06 A3043 RMK AO2
Loading
Personal Weather Stations






























Interactive Weather Map New forecast layout! Learn more

10-Day Weather Forecast

Advertisements
Track Severe Weather on mobile